This is the latest recevied weather packets stored in our database for station/object K5FEP. If no packets are shown the sender has not sent any weather packets the latest 1 day(s).
| Time | Temp. | Humidity | Pressure | Rain* | Wind** | Luminosity | Snow |
|---|---|---|---|---|---|---|---|
| 1777991468 | 22.78° C | 51% | 1015.4 hPa | 0 mm | 0.89 m/s, 291° | 741 W/m² | - |
| 1777991165 | 22.22° C | 45% | 1015.2 hPa | 0 mm | 1.34 m/s, 54° | 725 W/m² | - |
| 1777990862 | 22.22° C | 46% | 1015.2 hPa | 0 mm | 1.79 m/s, 71° | 710 W/m² | - |
| 1777990560 | 21.67° C | 47% | 1015.1 hPa | 0 mm | 2.24 m/s, 53° | 692 W/m² | - |
| 1777990256 | 21.11° C | 48% | 1015 hPa | 0 mm | 1.79 m/s, 29° | 675 W/m² | - |
| 1777989953 | 21.67° C | 46% | 1015.2 hPa | 0 mm | 2.68 m/s, 80° | 659 W/m² | - |
| 1777989650 | 21.67° C | 47% | 1015.1 hPa | 0 mm | 0 m/s | 641 W/m² | - |
| 1777989346 | 20.56° C | 51% | 1015.6 hPa | 0 mm | 1.34 m/s, 77° | 622 W/m² | - |
| 1777989043 | 20.56° C | 50% | 1015.2 hPa | 0 mm | 2.68 m/s, 51° | 609 W/m² | - |
| 1777988739 | 20.56° C | 52% | 1015.3 hPa | 0 mm | 1.79 m/s, 61° | 587 W/m² | - |
| 1777988436 | 20° C | 51% | 1015.2 hPa | 0 mm | 1.79 m/s, 87° | 569 W/m² | - |
| 1777988133 | 20° C | 51% | 1015.4 hPa | 0 mm | 4.02 m/s, 99° | 550 W/m² | - |
| 1777987832 | 20° C | 52% | 1015.2 hPa | 0 mm | 1.79 m/s, 29° | 531 W/m² | - |
| 1777987526 | 20° C | 53% | 1015.1 hPa | 0 mm | 2.24 m/s, 55° | 512 W/m² | - |
| 1777987223 | 20° C | 52% | 1015.2 hPa | 0 mm | 2.24 m/s, 37° | 492 W/m² | - |
| 1777986919 | 19.44° C | 54% | 1015.4 hPa | 0 mm | 0.89 m/s, 52° | 472 W/m² | - |
| 1777986618 | 18.89° C | 55% | 1015.3 hPa | 0 mm | 0.89 m/s, 96° | 453 W/m² | - |
| 1777986315 | 18.89° C | 56% | 1015.2 hPa | 0 mm | 1.34 m/s, 70° | 434 W/m² | - |
| 1777986014 | 18.89° C | 55% | 1015.3 hPa | 0 mm | 1.79 m/s, 13° | 415 W/m² | - |
| 1777985710 | 18.33° C | 56% | 1015.4 hPa | 0 mm | 1.79 m/s, 150° | 386 W/m² | - |
| 1777985407 | 18.33° C | 57% | 1015.3 hPa | 0 mm | 2.68 m/s, 100° | 367 W/m² | - |
| 1777985103 | 18.33° C | 57% | 1015.3 hPa | 0 mm | 4.02 m/s, 46° | 357 W/m² | - |
| 1777984799 | 17.78° C | 58% | 1015.5 hPa | 0 mm | 2.24 m/s, 43° | 337 W/m² | - |
| 1777984496 | 17.78° C | 59% | 1015.5 hPa | 0 mm | 1.34 m/s, 13° | 316 W/m² | - |
| 1777984192 | 17.78° C | 60% | 1015.6 hPa | 0 mm | 1.79 m/s, 47° | 258 W/m² | - |
* Rain latest hour (hover to see other rain measurements)
** Current wind speed in m/s (hover to see current wind gust speed)